Time;durP1;ratioP1;P1;durP2;ratioP2;P2;SDS_P1;SDS_P2;PMS_P1;PMS_P2;Temp;Humidity;BMP_temperature;BMP_pressure;BME280_temperature;BME280_humidity;BME280_pressure;Samples;Min_cycle;Max_cycle;Signal;HPM_P1;HPM_P2
2023/06/20 00:00:09;;;;;;;15.63;10.73;;;17.40;99.90;;;;;;5010861;28;20083;-87
2023/06/20 00:02:35;;;;;;;15.40;10.63;;;17.40;99.90;;;;;;5015068;28;20432;-87
2023/06/20 00:05:03;;;;;;;19.67;11.80;;;17.40;99.90;;;;;;5028865;28;20049;-87
2023/06/20 00:07:29;;;;;;;18.42;12.07;;;18.30;99.90;;;;;;5027765;28;20505;-89
2023/06/20 00:09:55;;;;;;;16.70;11.95;;;17.50;99.90;;;;;;4994706;28;20047;-88
2023/06/20 00:12:20;;;;;;;16.08;11.82;;;17.40;99.90;;;;;;5010643;28;20114;-89
2023/06/20 00:14:46;;;;;;;17.08;11.98;;;17.40;99.90;;;;;;5011903;28;20045;-88
2023/06/20 00:17:13;;;;;;;16.83;12.30;;;17.40;99.90;;;;;;5010870;28;20144;-88
2023/06/20 00:19:40;;;;;;;17.30;11.50;;;17.40;99.90;;;;;;5026502;28;20494;-88
2023/06/20 00:22:06;;;;;;;17.35;12.00;;;17.40;99.90;;;;;;5009913;28;20091;-89
2023/06/20 00:24:32;;;;;;;17.00;11.90;;;17.40;99.90;;;;;;5011444;28;20053;-89
2023/06/20 00:27:02;;;;;;;16.85;11.75;;;17.40;99.90;;;;;;4994872;28;20123;-90
2023/06/20 00:29:28;;;;;;;16.45;11.70;;;17.40;99.90;;;;;;5010482;28;20440;-90
2023/06/20 00:31:54;;;;;;;17.27;11.98;;;17.40;99.90;;;;;;5011027;28;20052;-89
2023/06/20 00:34:20;;;;;;;18.40;12.00;;;17.40;99.90;;;;;;5010061;28;20045;-89
2023/06/20 00:36:46;;;;;;;14.13;10.68;;;17.30;99.90;;;;;;4994961;28;20049;-89
2023/06/20 00:39:11;;;;;;;12.93;10.65;;;17.30;99.90;;;;;;4993874;28;20571;-89
2023/06/20 00:41:38;;;;;;;16.85;10.82;;;17.30;99.90;;;;;;4994306;28;20037;-89
2023/06/20 00:44:05;;;;;;;16.45;11.07;;;17.30;99.90;;;;;;4994348;28;20045;-89
2023/06/20 00:46:40;;;;;;;14.05;11.00;;;17.30;99.90;;;;;;4993336;28;20041;-89
2023/06/20 00:49:08;;;;;;;15.90;11.15;;;17.20;99.90;;;;;;4994417;28;20088;-88
2023/06/20 00:51:36;;;;;;;18.17;10.82;;;17.20;99.90;;;;;;5009846;28;20045;-89
2023/06/20 00:54:02;;;;;;;13.82;9.88;;;17.20;99.90;;;;;;4994338;28;20053;-89
2023/06/20 00:56:28;;;;;;;16.63;11.25;;;17.20;99.90;;;;;;4993825;28;20122;-89
2023/06/20 00:58:54;;;;;;;17.13;10.55;;;17.20;99.90;;;;;;4994727;28;20041;-89
2023/06/20 01:01:21;;;;;;;17.42;11.73;;;17.20;99.90;;;;;;5011074;28;20517;-88
2023/06/20 01:03:48;;;;;;;15.57;10.50;;;17.20;99.90;;;;;;4993708;28;20048;-88
2023/06/20 01:06:44;;;;;;;13.48;9.98;;;17.20;99.90;;;;;;4994774;28;20037;-89
2023/06/20 01:09:38;;;;;;;14.50;9.45;;;17.30;99.90;;;;;;4994426;28;20060;-89
2023/06/20 01:12:08;;;;;;;13.10;10.27;;;17.20;99.90;;;;;;5019919;28;20177;-88
2023/06/20 01:14:59;;;;;;;14.80;9.80;;;17.20;99.90;;;;;;5049513;28;20067;-88
2023/06/20 01:17:30;;;;;;;12.05;8.15;;;17.20;99.90;;;;;;5033464;28;20044;-88
2023/06/20 01:20:25;;;;;;;11.00;7.30;;;17.20;99.90;;;;;;5034054;28;20041;-88
2023/06/20 01:23:08;;;;;;;10.35;7.93;;;17.30;99.90;;;;;;5010448;28;20249;-88
2023/06/20 01:26:00;;;;;;;12.20;8.25;;;17.20;99.90;;;;;;5027130;28;20041;-88
2023/06/20 01:28:26;;;;;;;11.25;7.38;;;17.30;99.90;;;;;;5010232;28;20045;-88
2023/06/20 01:31:05;;;;;;;13.52;8.05;;;17.20;99.90;;;;;;5011110;28;20049;-87
2023/06/20 01:33:37;;;;;;;14.95;7.38;;;17.20;99.90;;;;;;5013705;28;20763;-87
2023/06/20 01:36:04;;;;;;;11.52;7.78;;;17.20;99.90;;;;;;5014269;28;20084;-87
2023/06/20 01:38:35;;;;;;;11.57;7.72;;;17.10;99.90;;;;;;5013280;28;20106;-87
2023/06/20 01:41:04;;;;;;;12.43;7.22;;;17.20;99.90;;;;;;4998305;28;20053;-87
2023/06/20 01:43:31;;;;;;;7.90;6.30;;;17.10;99.90;;;;;;5013421;28;20045;-86
2023/06/20 01:46:00;;;;;;;9.93;7.38;;;17.10;99.90;;;;;;5001138;28;20139;-85
2023/06/20 01:48:29;;;;;;;8.15;6.32;;;17.10;99.90;;;;;;5017211;28;20166;-87
2023/06/20 01:50:55;;;;;;;9.30;7.00;;;17.10;99.90;;;;;;5033614;28;20146;-88
2023/06/20 01:53:24;;;;;;;10.32;7.60;;;17.20;99.90;;;;;;5014805;28;20041;-89
2023/06/20 01:55:52;;;;;;;14.07;6.05;;;17.10;99.90;;;;;;5012962;28;20041;-89
2023/06/20 01:58:18;;;;;;;10.40;7.28;;;17.10;99.90;;;;;;5013708;28;20087;-88
2023/06/20 02:00:45;;;;;;;9.35;7.07;;;17.10;99.90;;;;;;4996152;28;20128;-88
2023/06/20 02:03:12;;;;;;;8.75;7.00;;;17.10;99.90;;;;;;4996743;28;20127;-88
2023/06/20 02:05:41;;;;;;;11.65;7.15;;;17.10;99.90;;;;;;5013294;28;20045;-89
2023/06/20 02:08:07;;;;;;;11.75;7.30;;;17.10;99.90;;;;;;5012253;28;20033;-88
2023/06/20 02:10:34;;;;;;;11.20;7.45;;;17.10;99.90;;;;;;4997922;28;20417;-88
2023/06/20 02:13:01;;;;;;;9.45;6.18;;;17.10;99.90;;;;;;5028357;28;20098;-89
2023/06/20 02:15:28;;;;;;;7.95;6.45;;;17.10;99.90;;;;;;5013224;28;20052;-88
2023/06/20 02:17:54;;;;;;;8.20;6.50;;;17.10;99.90;;;;;;5028514;28;20049;-88
2023/06/20 02:20:20;;;;;;;10.88;5.85;;;17.10;99.90;;;;;;4996353;28;20059;-88
2023/06/20 02:22:47;;;;;;;9.60;6.15;;;17.10;99.90;;;;;;4996570;28;20457;-88
2023/06/20 02:25:20;;;;;;;8.02;6.28;;;17.20;99.90;;;;;;5012205;28;20045;-89
2023/06/20 02:27:48;;;;;;;9.43;6.03;;;17.20;99.90;;;;;;5031384;28;20127;-87
2023/06/20 02:30:15;;;;;;;9.60;6.25;;;17.20;99.90;;;;;;4995236;28;20049;-88
2023/06/20 02:32:42;;;;;;;8.82;5.93;;;17.20;99.90;;;;;;5012995;28;20398;-87
2023/06/20 02:35:10;;;;;;;8.23;6.07;;;17.20;99.90;;;;;;5011073;28;20037;-88
2023/06/20 02:37:39;;;;;;;9.13;6.55;;;17.20;99.90;;;;;;5011563;28;20132;-87
2023/06/20 02:40:06;;;;;;;8.13;5.50;;;18.60;99.90;;;;;;5013051;28;20351;-88
2023/06/20 02:42:32;;;;;;;9.73;7.78;;;17.20;99.90;;;;;;5027374;28;20410;-86
2023/06/20 02:44:58;;;;;;;9.15;6.63;;;17.20;99.90;;;;;;5012517;28;20083;-87
2023/06/20 02:47:46;;;;;;;11.85;7.32;;;17.20;99.90;;;;;;5020280;28;20056;-88
2023/06/20 02:50:24;;;;;;;10.90;6.93;;;17.20;99.90;;;;;;5027383;28;20076;-87
2023/06/20 02:53:14;;;;;;;11.77;7.53;;;15.50;99.90;;;;;;5037315;28;20033;-86
2023/06/20 02:55:45;;;;;;;10.43;7.35;;;17.20;99.90;;;;;;5035287;28;20124;-87
2023/06/20 02:58:12;;;;;;;9.45;7.05;;;17.30;99.90;;;;;;5025884;28;20056;-88
2023/06/20 03:00:43;;;;;;;12.25;8.95;;;17.30;99.90;;;;;;5001207;28;20410;-87
2023/06/20 03:03:36;;;;;;;11.02;7.72;;;17.30;99.90;;;;;;5012974;28;20259;-88
2023/06/20 03:06:06;;;;;;;12.00;8.30;;;17.30;99.90;;;;;;5025659;28;20143;-87
2023/06/20 03:08:33;;;;;;;13.05;9.15;;;17.30;99.90;;;;;;5011334;28;20072;-87
2023/06/20 03:11:00;;;;;;;11.07;9.00;;;17.30;99.90;;;;;;4995519;28;20581;-86
2023/06/20 03:13:27;;;;;;;13.27;8.93;;;17.30;99.90;;;;;;5010837;28;20128;-88
2023/06/20 03:15:55;;;;;;;16.25;8.95;;;17.30;99.90;;;;;;4995876;28;20029;-87
2023/06/20 03:18:20;;;;;;;13.20;8.63;;;18.40;99.90;;;;;;5012043;28;20045;-88
2023/06/20 03:20:48;;;;;;;16.40;9.60;;;17.30;99.90;;;;;;4994768;28;20052;-86
2023/06/20 03:23:14;;;;;;;13.25;8.60;;;17.30;99.90;;;;;;5028466;28;20048;-86
2023/06/20 03:25:40;;;;;;;12.68;9.15;;;17.30;99.90;;;;;;5026899;28;20083;-86
2023/06/20 03:28:06;;;;;;;13.70;8.60;;;18.50;99.90;;;;;;5011266;28;20076;-85
2023/06/20 03:30:31;;;;;;;13.63;8.98;;;17.30;99.90;;;;;;4993958;28;20109;-86
2023/06/20 03:32:57;;;;;;;12.00;8.80;;;17.30;99.90;;;;;;5027304;28;20100;-87
2023/06/20 03:35:23;;;;;;;13.65;8.95;;;17.30;99.90;;;;;;4994375;28;20063;-85
2023/06/20 03:37:49;;;;;;;11.20;8.75;;;15.50;99.90;;;;;;4997316;28;20056;-85
2023/06/20 03:40:14;;;;;;;14.45;9.50;;;17.30;99.90;;;;;;5012543;28;20037;-85
2023/06/20 03:42:41;;;;;;;13.60;8.60;;;17.30;99.90;;;;;;4994365;28;20118;-86
2023/06/20 03:45:07;;;;;;;14.10;8.98;;;17.30;99.90;;;;;;5011524;28;20037;-86
2023/06/20 03:47:33;;;;;;;11.30;8.70;;;17.30;99.90;;;;;;5010507;28;20485;-86
2023/06/20 03:49:59;;;;;;;10.73;8.50;;;17.30;99.90;;;;;;4994168;28;20084;-87
2023/06/20 03:52:25;;;;;;;13.50;9.00;;;17.30;99.90;;;;;;5011464;28;20128;-86
2023/06/20 03:54:51;;;;;;;13.80;9.52;;;17.30;99.90;;;;;;5010470;28;20048;-86
2023/06/20 03:57:17;;;;;;;11.75;9.00;;;17.30;99.90;;;;;;5011263;28;20547;-86
2023/06/20 03:59:42;;;;;;;12.63;9.48;;;17.30;99.90;;;;;;5026042;28;20045;-87
2023/06/20 04:02:08;;;;;;;13.52;8.90;;;17.30;99.90;;;;;;4994531;28;20094;-86
2023/06/20 04:04:34;;;;;;;11.80;8.55;;;17.30;99.90;;;;;;5010677;28;20080;-85
2023/06/20 04:06:59;;;;;;;14.63;9.38;;;17.30;99.90;;;;;;4994605;28;20127;-87
2023/06/20 04:09:26;;;;;;;15.95;8.55;;;17.40;99.90;;;;;;5010101;28;20049;-86
2023/06/20 04:11:53;;;;;;;10.60;8.07;;;17.40;99.90;;;;;;5010734;28;20052;-85
2023/06/20 04:14:19;;;;;;;14.38;8.85;;;17.40;99.90;;;;;;5011390;28;20052;-85
2023/06/20 04:16:47;;;;;;;12.05;8.65;;;17.40;99.90;;;;;;4993585;28;20037;-87
2023/06/20 04:19:14;;;;;;;12.95;8.25;;;17.40;99.90;;;;;;4995010;28;20130;-85
2023/06/20 04:21:40;;;;;;;10.95;7.75;;;17.50;99.90;;;;;;5027063;28;20053;-87
2023/06/20 04:24:06;;;;;;;10.75;8.00;;;17.60;99.90;;;;;;5020182;28;20045;-87
2023/06/20 04:26:31;;;;;;;15.05;8.85;;;17.60;99.90;;;;;;5028461;28;20550;-87
2023/06/20 04:28:57;;;;;;;11.52;7.95;;;17.70;99.90;;;;;;5048329;28;20100;-87
2023/06/20 04:31:24;;;;;;;14.00;8.60;;;17.70;99.90;;;;;;5035710;28;20041;-88
2023/06/20 04:33:50;;;;;;;9.95;7.82;;;17.80;99.90;;;;;;5021463;28;20041;-87
2023/06/20 04:36:15;;;;;;;12.10;7.28;;;17.90;99.90;;;;;;5012066;28;20052;-87
2023/06/20 04:38:42;;;;;;;9.75;7.25;;;17.90;99.90;;;;;;4993570;28;20047;-86
2023/06/20 04:41:11;;;;;;;10.52;6.75;;;18.00;99.90;;;;;;5010571;28;20041;-86
2023/06/20 04:43:37;;;;;;;10.00;7.63;;;18.00;99.90;;;;;;5010158;28;20037;-85
2023/06/20 04:46:04;;;;;;;10.77;7.40;;;18.10;99.90;;;;;;5027771;28;20052;-86
2023/06/20 04:48:30;;;;;;;14.63;8.07;;;18.20;99.90;;;;;;5031013;28;20622;-87
2023/06/20 04:50:56;;;;;;;9.00;7.25;;;18.20;99.90;;;;;;5026649;28;20057;-87
2023/06/20 04:53:25;;;;;;;12.25;7.78;;;18.30;99.90;;;;;;5010453;28;20486;-86
2023/06/20 04:55:51;;;;;;;11.38;8.30;;;18.40;99.90;;;;;;5027395;28;20086;-93
2023/06/20 04:58:16;;;;;;;9.95;7.13;;;18.50;99.90;;;;;;5013959;28;20069;-94
2023/06/20 05:00:42;;;;;;;10.77;8.20;;;18.40;99.90;;;;;;5029492;28;20099;-95
2023/06/20 05:03:08;;;;;;;10.25;7.28;;;18.50;99.90;;;;;;5016423;28;20059;-94
2023/06/20 05:05:34;;;;;;;10.27;7.10;;;18.50;99.90;;;;;;4998861;28;20045;-93
2023/06/20 05:07:59;;;;;;;10.25;6.93;;;18.50;99.90;;;;;;5031064;28;20049;-90
2023/06/20 05:10:26;;;;;;;9.52;6.57;;;18.50;99.90;;;;;;4998840;28;20052;-94
2023/06/20 05:12:51;;;;;;;8.20;6.78;;;18.50;99.90;;;;;;5014706;28;20048;-92
2023/06/20 05:15:23;;;;;;;12.00;7.30;;;18.60;99.90;;;;;;4999894;28;20504;-91
2023/06/20 05:17:50;;;;;;;11.63;7.07;;;18.50;99.90;;;;;;4999711;28;20047;-91
2023/06/20 05:20:15;;;;;;;9.77;7.10;;;18.50;99.90;;;;;;5014689;28;20473;-91
2023/06/20 05:22:41;;;;;;;11.88;6.63;;;18.50;99.90;;;;;;5019600;28;20048;-86
2023/06/20 05:25:07;;;;;;;10.80;7.30;;;18.50;99.90;;;;;;5029699;28;20045;-87
2023/06/20 05:27:34;;;;;;;14.15;6.85;;;18.50;99.90;;;;;;4997844;28;20130;-86
2023/06/20 05:30:00;;;;;;;11.00;8.05;;;18.50;99.90;;;;;;5034194;28;20041;-88
2023/06/20 05:32:26;;;;;;;10.27;7.13;;;18.50;99.90;;;;;;5020361;28;20067;-90
2023/06/20 05:34:53;;;;;;;12.70;7.70;;;18.60;99.90;;;;;;5014125;28;20045;-91
2023/06/20 05:37:19;;;;;;;9.80;7.00;;;18.60;99.90;;;;;;5015269;28;20398;-91
2023/06/20 05:39:45;;;;;;;12.93;7.53;;;18.60;99.90;;;;;;5013661;28;20052;-91
2023/06/20 05:42:11;;;;;;;9.38;6.63;;;18.60;99.90;;;;;;5013666;28;20111;-91
2023/06/20 05:44:37;;;;;;;12.13;7.65;;;18.60;99.90;;;;;;4999240;28;20052;-91
2023/06/20 05:47:06;;;;;;;10.98;7.43;;;18.70;99.90;;;;;;4997286;28;20461;-91
2023/06/20 05:49:32;;;;;;;13.77;7.18;;;18.70;99.90;;;;;;5014840;28;20088;-94
2023/06/20 05:51:58;;;;;;;10.45;7.07;;;18.70;99.90;;;;;;4996998;28;20402;-89
2023/06/20 05:54:24;;;;;;;11.50;8.02;;;18.70;99.90;;;;;;4997743;28;20132;-89
2023/06/20 05:56:50;;;;;;;10.60;6.68;;;18.80;99.90;;;;;;4998596;28;20060;-90
2023/06/20 05:59:16;;;;;;;11.80;7.65;;;18.80;99.90;;;;;;5033107;28;20044;-96
2023/06/20 06:01:42;;;;;;;13.73;7.80;;;18.80;99.90;;;;;;5052455;28;20044;-90
2023/06/20 06:04:07;;;;;;;10.18;7.32;;;18.80;99.90;;;;;;5020840;28;20036;-90
2023/06/20 06:06:34;;;;;;;10.68;7.25;;;18.90;99.90;;;;;;5054413;28;20061;-89
2023/06/20 06:09:00;;;;;;;12.23;8.75;;;20.60;99.90;;;;;;5002167;28;20045;-90
2023/06/20 06:11:26;;;;;;;11.52;7.40;;;18.90;99.90;;;;;;4998086;28;20475;-91
2023/06/20 06:13:51;;;;;;;12.43;7.90;;;18.90;99.90;;;;;;4998024;28;20053;-89
2023/06/20 06:16:17;;;;;;;10.55;7.80;;;18.90;99.90;;;;;;5030353;28;20045;-90
2023/06/20 06:18:43;;;;;;;12.88;7.63;;;19.00;99.90;;;;;;4998639;28;20401;-90
2023/06/20 06:21:09;;;;;;;12.55;7.90;;;19.00;99.90;;;;;;5029288;28;20045;-91
2023/06/20 06:23:36;;;;;;;10.95;8.52;;;19.00;99.90;;;;;;5030630;28;20060;-91
2023/06/20 06:26:02;;;;;;;12.75;8.35;;;19.10;99.90;;;;;;4996460;28;20041;-90
2023/06/20 06:28:29;;;;;;;13.13;8.35;;;19.10;99.90;;;;;;5014057;28;20103;-90
2023/06/20 06:30:58;;;;;;;10.00;7.68;;;19.10;99.90;;;;;;5013759;28;20088;-90
2023/06/20 06:33:24;;;;;;;11.60;8.00;;;19.20;99.90;;;;;;5013603;28;20044;-91
2023/06/20 06:35:50;;;;;;;11.27;8.10;;;19.30;99.90;;;;;;5014349;28;20044;-90
2023/06/20 06:38:16;;;;;;;9.65;7.28;;;19.30;99.90;;;;;;5012248;28;20125;-90
2023/06/20 06:40:43;;;;;;;11.55;8.32;;;19.30;99.90;;;;;;4998185;28;20044;-90
2023/06/20 06:43:09;;;;;;;12.07;8.32;;;19.40;99.90;;;;;;4996300;28;20044;-90
2023/06/20 06:45:38;;;;;;;9.55;8.20;;;19.50;99.90;;;;;;4997809;28;20087;-90
2023/06/20 06:48:04;;;;;;;12.15;7.75;;;19.60;99.90;;;;;;5013304;28;20041;-91
2023/06/20 06:50:30;;;;;;;11.55;8.55;;;19.70;99.90;;;;;;5012544;28;20494;-91
2023/06/20 06:52:56;;;;;;;11.27;8.35;;;19.70;99.90;;;;;;5013535;28;20446;-89
2023/06/20 06:55:21;;;;;;;11.65;8.13;;;19.80;99.90;;;;;;5012501;28;20053;-89
2023/06/20 06:57:47;;;;;;;11.25;7.45;;;19.80;99.90;;;;;;4997869;28;20037;-92
2023/06/20 07:00:14;;;;;;;10.43;8.30;;;19.90;99.90;;;;;;5012282;28;20486;-92
2023/06/20 07:02:41;;;;;;;11.75;7.80;;;20.00;99.90;;;;;;5030481;28;20076;-91
2023/06/20 07:05:08;;;;;;;10.93;7.88;;;20.10;99.90;;;;;;5012617;28;20335;-92
2023/06/20 07:07:37;;;;;;;12.40;7.93;;;20.20;99.90;;;;;;5016067;28;20053;-92
2023/06/20 07:10:06;;;;;;;11.45;8.45;;;20.20;99.90;;;;;;5023350;28;20041;-92
2023/06/20 07:12:32;;;;;;;13.82;8.95;;;20.30;99.90;;;;;;5006957;28;20387;-91
2023/06/20 07:14:57;;;;;;;13.82;8.35;;;20.40;99.90;;;;;;5013515;28;20116;-92
2023/06/20 07:17:26;;;;;;;9.63;7.75;;;20.40;99.90;;;;;;5045847;28;20094;-91
2023/06/20 07:19:53;;;;;;;12.50;8.30;;;20.60;99.90;;;;;;5021753;28;20049;-94
2023/06/20 07:22:19;;;;;;;16.08;7.88;;;20.70;99.90;;;;;;5016677;28;20076;-89
2023/06/20 07:24:45;;;;;;;10.70;8.80;;;20.80;99.90;;;;;;4999951;28;20040;-90
2023/06/20 07:27:10;;;;;;;8.38;7.38;;;20.80;99.90;;;;;;4994117;28;20555;-87
2023/06/20 07:29:37;;;;;;;8.52;7.32;;;20.90;99.90;;;;;;4990875;28;20049;-88
2023/06/20 07:32:06;;;;;;;10.18;7.40;;;21.00;99.90;;;;;;5028425;28;20042;-86
2023/06/20 07:34:32;;;;;;;10.27;7.30;;;21.10;99.90;;;;;;5000174;28;20049;-88
2023/06/20 07:36:57;;;;;;;10.15;7.45;;;21.20;99.90;;;;;;5023270;28;20104;-87
2023/06/20 07:39:23;;;;;;;10.98;7.20;;;21.30;99.90;;;;;;5034042;28;20047;-88
2023/06/20 07:41:49;;;;;;;8.70;7.35;;;21.30;99.90;;;;;;5028146;28;20405;-87
2023/06/20 07:44:14;;;;;;;9.23;7.53;;;21.40;99.90;;;;;;5013209;28;20037;-88
2023/06/20 07:46:40;;;;;;;10.32;7.28;;;21.40;99.90;;;;;;4994700;28;20068;-86
2023/06/20 07:49:06;;;;;;;10.25;7.25;;;21.50;99.90;;;;;;4995832;28;20041;-89
2023/06/20 07:51:36;;;;;;;10.07;7.55;;;21.50;99.90;;;;;;5010206;28;20055;-87
2023/06/20 07:54:05;;;;;;;11.55;8.32;;;21.60;99.90;;;;;;5027847;28;20056;-87
2023/06/20 07:56:31;;;;;;;9.80;7.22;;;21.70;99.90;;;;;;5011744;28;20129;-88
2023/06/20 07:58:56;;;;;;;9.13;7.05;;;21.80;99.90;;;;;;5010980;28;20131;-87
2023/06/20 08:01:22;;;;;;;10.70;8.60;;;21.90;99.90;;;;;;4994718;28;20040;-88
2023/06/20 08:03:49;;;;;;;9.00;7.22;;;22.00;99.90;;;;;;5010470;28;20118;-87
2023/06/20 08:06:14;;;;;;;10.98;7.30;;;22.20;99.90;;;;;;5012126;28;20084;-87
2023/06/20 08:08:41;;;;;;;10.65;7.78;;;22.30;99.90;;;;;;5009911;28;20052;-88
2023/06/20 08:11:07;;;;;;;9.20;6.78;;;22.40;99.90;;;;;;5011359;28;20083;-85
2023/06/20 08:13:33;;;;;;;7.60;6.60;;;22.50;99.90;;;;;;5010780;28;20080;-87
2023/06/20 08:15:59;;;;;;;10.80;7.40;;;22.60;99.90;;;;;;4995691;28;20087;-87
2023/06/20 08:18:24;;;;;;;10.82;6.30;;;22.70;99.90;;;;;;5013267;28;20546;-87
2023/06/20 08:20:50;;;;;;;8.48;7.03;;;22.90;99.90;;;;;;5010334;28;20047;-88
2023/06/20 08:23:26;;;;;;;9.18;7.70;;;22.90;99.90;;;;;;5029768;28;20134;-84
2023/06/20 08:25:54;;;;;;;9.95;7.10;;;23.10;99.90;;;;;;5027871;28;20518;-87
2023/06/20 08:28:20;;;;;;;9.07;7.25;;;23.30;99.90;;;;;;5011726;28;20367;-86
2023/06/20 08:30:45;;;;;;;8.52;5.88;;;23.40;99.90;;;;;;5010089;28;20048;-87
2023/06/20 08:33:11;;;;;;;8.15;6.63;;;22.30;99.90;;;;;;5010093;28;20056;-86
2023/06/20 08:35:37;;;;;;;6.93;6.13;;;23.80;99.90;;;;;;5028011;28;20041;-87
2023/06/20 08:38:02;;;;;;;10.73;6.57;;;24.20;99.90;;;;;;4993957;28;20087;-86
2023/06/20 08:40:30;;;;;;;8.60;7.13;;;24.00;99.90;;;;;;5030851;28;20049;-86
2023/06/20 08:42:56;;;;;;;10.23;6.47;;;24.10;99.90;;;;;;4997651;28;20482;-87
2023/06/20 08:45:22;;;;;;;9.02;7.03;;;24.10;99.90;;;;;;4999623;28;20048;-87
2023/06/20 08:47:47;;;;;;;7.57;5.75;;;24.10;99.90;;;;;;5001039;28;20045;-86
2023/06/20 08:50:13;;;;;;;8.48;6.95;;;24.00;99.90;;;;;;5014623;28;20861;-87
2023/06/20 08:52:47;;;;;;;8.80;6.25;;;24.00;99.90;;;;;;5015104;28;20049;-87
2023/06/20 08:55:14;;;;;;;10.77;6.68;;;24.00;99.90;;;;;;4998181;28;20053;-87
2023/06/20 08:57:40;;;;;;;9.20;6.70;;;24.10;99.90;;;;;;5002597;28;20048;-87
2023/06/20 09:00:09;;;;;;;10.80;6.80;;;24.00;99.90;;;;;;5015123;28;20084;-87
2023/06/20 09:02:35;;;;;;;7.75;6.18;;;24.00;99.90;;;;;;5002633;28;20044;-87
2023/06/20 09:05:05;;;;;;;8.85;6.65;;;24.00;99.90;;;;;;5025258;28;20047;-89
2023/06/20 09:07:36;;;;;;;9.68;6.70;;;24.00;99.90;;;;;;5030687;28;20045;-89
2023/06/20 09:10:02;;;;;;;9.82;6.57;;;24.00;99.90;;;;;;5020108;28;20029;-94
2023/06/20 09:12:28;;;;;;;7.78;6.57;;;24.00;99.90;;;;;;5020101;28;20037;-87
2023/06/20 09:14:54;;;;;;;7.88;6.57;;;23.50;99.90;;;;;;5022719;28;20059;-92
2023/06/20 09:17:19;;;;;;;12.95;7.00;;;24.10;99.90;;;;;;5030385;28;20128;-89
2023/06/20 09:19:46;;;;;;;6.82;6.10;;;24.10;99.90;;;;;;5020737;28;20044;-91
2023/06/20 09:22:16;;;;;;;9.10;6.93;;;24.30;99.90;;;;;;5003707;28;20083;-93
2023/06/20 09:24:44;;;;;;;8.32;6.28;;;24.40;99.90;;;;;;5019149;28;20052;-91
2023/06/20 09:27:10;;;;;;;7.78;6.93;;;24.30;99.90;;;;;;5004950;28;20064;-90
2023/06/20 09:29:53;;;;;;;6.88;6.03;;;24.60;99.90;;;;;;5019695;28;20056;-92
2023/06/20 09:32:20;;;;;;;8.82;7.55;;;24.70;99.90;;;;;;5010159;28;20104;-87
2023/06/20 09:34:46;;;;;;;8.75;6.70;;;24.80;99.90;;;;;;5016166;28;20045;-86
2023/06/20 09:37:14;;;;;;;7.72;6.93;;;24.80;99.90;;;;;;5040076;28;20047;-86
2023/06/20 09:39:40;;;;;;;10.98;7.00;;;24.70;99.90;;;;;;5033824;28;20071;-86
2023/06/20 09:42:11;;;;;;;8.60;6.40;;;24.80;99.90;;;;;;4999353;28;20045;-87
2023/06/20 09:44:37;;;;;;;9.43;6.20;;;24.90;99.90;;;;;;5000661;28;20438;-86
2023/06/20 09:47:03;;;;;;;8.60;7.45;;;25.00;99.90;;;;;;5014808;28;20079;-90
2023/06/20 09:49:31;;;;;;;7.63;6.82;;;25.90;99.90;;;;;;5018510;28;20120;-91
2023/06/20 09:52:06;;;;;;;10.20;6.70;;;25.20;99.90;;;;;;5016883;28;20053;-89
2023/06/20 09:54:55;;;;;;;8.15;6.25;;;25.20;99.90;;;;;;5018662;28;20087;-88
2023/06/20 09:57:30;;;;;;;10.90;7.00;;;25.30;99.90;;;;;;5035458;28;20052;-90
2023/06/20 09:59:57;;;;;;;7.05;6.32;;;25.40;99.90;;;;;;5033353;28;20045;-89
2023/06/20 10:02:25;;;;;;;8.07;6.65;;;25.50;99.90;;;;;;5018204;28;20430;-88
2023/06/20 10:04:52;;;;;;;7.13;6.28;;;25.70;99.90;;;;;;5016895;28;20095;-89
2023/06/20 10:07:19;;;;;;;6.88;5.28;;;25.80;99.90;;;;;;5030198;28;20103;-89
2023/06/20 10:09:48;;;;;;;6.90;5.45;;;25.90;99.90;;;;;;4997939;28;20136;-92
2023/06/20 10:12:14;;;;;;;8.38;5.68;;;26.10;99.90;;;;;;5029856;28;20048;-90
2023/06/20 10:14:40;;;;;;;7.72;6.40;;;26.30;99.90;;;;;;4999936;28;20394;-90
2023/06/20 10:17:08;;;;;;;11.05;9.05;;;26.50;99.90;;;;;;5051428;28;20045;-89
2023/06/20 10:19:51;;;;;;;7.38;6.47;;;26.70;99.90;;;;;;5015904;28;20048;-92
2023/06/20 10:22:37;;;;;;;8.60;6.05;;;26.90;99.90;;;;;;5031109;28;20051;-92
2023/06/20 10:25:14;;;;;;;11.13;6.05;;;27.00;99.90;;;;;;5015076;28;20139;-93
2023/06/20 10:27:53;;;;;;;6.15;4.97;;;27.10;99.90;;;;;;5017632;28;20086;-92
2023/06/20 10:30:54;;;;;;;6.95;5.03;;;27.20;99.90;;;;;;5014411;28;20056;-93
2023/06/20 10:33:27;;;;;;;6.97;5.05;;;27.20;99.90;;;;;;5031456;28;20405;-93
2023/06/20 10:35:57;;;;;;;6.10;5.50;;;27.30;99.90;;;;;;5016377;28;20059;-93
2023/06/20 10:38:24;;;;;;;5.68;5.13;;;27.40;99.90;;;;;;5032075;28;20041;-91
2023/06/20 10:41:21;;;;;;;6.88;5.45;;;27.50;99.90;;;;;;5035183;28;20482;-92
2023/06/20 10:43:52;;;;;;;5.65;4.38;;;27.50;99.90;;;;;;5032719;28;20475;-95
2023/06/20 10:46:31;;;;;;;6.57;4.82;;;27.50;99.90;;;;;;5033452;28;20071;-94
2023/06/20 10:48:57;;;;;;;5.38;4.15;;;27.60;99.90;;;;;;5032804;28;20033;-92
2023/06/20 10:51:23;;;;;;;5.78;4.22;;;27.60;99.90;;;;;;5034505;28;20037;-94
2023/06/20 10:53:48;;;;;;;5.20;4.30;;;27.70;99.90;;;;;;5039126;28;20088;-95
2023/06/20 10:56:29;;;;;;;5.55;4.68;;;27.70;99.90;;;;;;5017337;28;20044;-95
2023/06/20 10:58:54;;;;;;;9.80;4.15;;;27.70;99.60;;;;;;5035262;28;20123;-92
2023/06/20 11:01:25;;;;;;;5.55;4.10;;;27.70;99.80;;;;;;5034712;28;20040;-94
2023/06/20 11:03:52;;;;;;;7.22;4.90;;;27.80;99.80;;;;;;5050012;28;20100;-96
2023/06/20 11:06:19;;;;;;;5.65;4.80;;;27.80;99.70;;;;;;5037751;28;20036;-93
2023/06/20 11:08:45;;;;;;;5.13;4.40;;;27.80;99.30;;;;;;5037239;28;20044;-94
2023/06/20 11:11:11;;;;;;;5.28;4.72;;;27.90;99.30;;;;;;5033565;28;20047;-91
2023/06/20 11:13:42;;;;;;;5.35;4.20;;;27.90;99.20;;;;;;5016400;28;20136;-95
2023/06/20 11:16:18;;;;;;;5.32;4.07;;;28.10;99.00;;;;;;5050422;28;20041;-93
2023/06/20 11:18:45;;;;;;;5.00;4.50;;;28.20;99.10;;;;;;5017866;28;20045;-96
2023/06/20 11:21:10;;;;;;;5.28;4.38;;;28.30;98.80;;;;;;5049887;28;20053;-93
2023/06/20 11:23:36;;;;;;;4.97;4.28;;;28.40;98.60;;;;;;5017204;28;20059;-92
2023/06/20 11:26:02;;;;;;;5.28;4.40;;;28.40;98.50;;;;;;4997758;28;20040;-94
2023/06/20 11:28:28;;;;;;;5.18;4.60;;;28.50;98.50;;;;;;5002930;28;20049;-95
2023/06/20 11:30:54;;;;;;;4.65;3.65;;;28.50;98.60;;;;;;4997664;28;20445;-92
2023/06/20 11:33:20;;;;;;;4.47;3.55;;;28.60;98.30;;;;;;5033015;28;20175;-96
2023/06/20 11:35:53;;;;;;;4.00;3.60;;;28.80;98.20;;;;;;5015302;28;20049;-95
2023/06/20 11:38:23;;;;;;;6.35;4.10;;;29.00;97.70;;;;;;5015761;28;20040;-94
2023/06/20 11:40:59;;;;;;;4.82;4.18;;;29.10;97.20;;;;;;5000126;28;20051;-94
2023/06/20 11:43:33;;;;;;;4.35;3.22;;;29.10;97.10;;;;;;5033255;28;20044;-96
2023/06/20 11:46:00;;;;;;;5.45;4.05;;;27.80;96.70;;;;;;5015519;28;20527;-94
2023/06/20 11:48:28;;;;;;;4.95;4.18;;;29.20;97.30;;;;;;5029854;28;20560;-92
2023/06/20 11:50:59;;;;;;;5.53;5.03;;;29.30;97.20;;;;;;4999544;28;20063;-91
2023/06/20 11:53:45;;;;;;;5.38;4.20;;;29.40;97.10;;;;;;5015711;28;20045;-94
2023/06/20 11:56:11;;;;;;;5.38;4.53;;;29.50;96.60;;;;;;5012914;28;20049;-94
2023/06/20 11:58:49;;;;;;;5.53;3.95;;;29.60;96.60;;;;;;5015177;28;20095;-95
2023/06/20 12:01:19;;;;;;;5.03;4.00;;;29.70;96.20;;;;;;5013247;28;20045;-93
2023/06/20 12:04:12;;;;;;;5.18;4.00;;;29.70;96.30;;;;;;5026234;28;20044;-92
2023/06/20 12:06:39;;;;;;;4.60;3.90;;;29.70;95.60;;;;;;5046844;28;20048;-94
2023/06/20 12:09:08;;;;;;;4.65;4.25;;;29.70;96.00;;;;;;5044645;28;20045;-94
2023/06/20 12:11:36;;;;;;;7.20;4.95;;;29.50;95.90;;;;;;5014773;28;20044;-92
2023/06/20 12:14:02;;;;;;;6.53;4.50;;;29.40;95.80;;;;;;5011837;28;20146;-91
2023/06/20 12:16:28;;;;;;;5.65;5.03;;;29.30;95.90;;;;;;5013989;28;20065;-96
2023/06/20 12:18:59;;;;;;;6.70;4.90;;;29.10;95.80;;;;;;5014537;28;20049;-95
2023/06/20 12:21:25;;;;;;;4.57;4.18;;;29.00;95.80;;;;;;5014477;28;20064;-93
2023/06/20 12:23:51;;;;;;;7.13;5.32;;;28.90;96.00;;;;;;5015755;28;20525;-90
2023/06/20 12:26:17;;;;;;;5.07;4.57;;;28.90;95.90;;;;;;5014265;28;20071;-92
2023/06/20 12:28:42;;;;;;;6.00;5.35;;;28.90;96.00;;;;;;5024816;28;20092;-92
2023/06/20 12:31:10;;;;;;;8.30;5.22;;;28.80;96.10;;;;;;5017846;28;20056;-92
2023/06/20 12:33:37;;;;;;;6.60;4.88;;;29.00;96.50;;;;;;5035973;28;20055;-90
2023/06/20 12:36:07;;;;;;;6.00;4.65;;;29.20;96.40;;;;;;5019125;28;20048;-93
2023/06/20 12:38:34;;;;;;;4.22;3.83;;;29.30;96.10;;;;;;5024775;28;20040;-96
2023/06/20 12:41:00;;;;;;;5.20;4.70;;;29.20;95.90;;;;;;5017174;28;20045;-93
2023/06/20 12:43:25;;;;;;;6.95;4.70;;;29.20;96.10;;;;;;5012685;28;20056;-93
2023/06/20 12:45:52;;;;;;;6.13;4.35;;;29.30;96.00;;;;;;5017370;28;20033;-94